Flight Track Log - Related Links

Times and Time Zones

All times are in EDT time to prevent confusion due to time zone crossing. See the UPS974 flight status page for this flight to view local times or setup timezone preferences in your user account.

Time Position Orientation Groundspeed Altitude Reporting Facility
EDT Latitude Longitude Course Direction KTS MPH feet Rate Location/Type
Sat 04:34:33 AM 38.1667 -85.7333 276° West 164 189 1,100  Level Louisville TRACON
Sat 04:35:45 AM 38.1133 -85.7525 196° South 174 200 3,800 2,391 Climbing Indianapolis Center
Sat 04:36:46 AM 38.0569 -85.7906 208° Southwest 274 315 6,400 2,678 Climbing Indianapolis Center
Sat 04:37:46 AM 38.0667 -85.8850 277° West 275 316 9,200 2,150 Climbing Indianapolis Center
Sat 04:38:46 AM 38.0894 -85.9919 285° West 307 353 10,700 1,650 Climbing Indianapolis Center
Sat 04:39:46 AM 38.1186 -86.1228 286° West 385 443 12,500 2,700 Climbing Indianapolis Center
Sat 04:40:00 AM 38.2581 -86.3301 276° West  Level FlightAware Approximate
Sat 04:40:46 AM 38.1483 -86.2642 285° West 410 472 16,100  Level Indianapolis Center
Sat 04:41:46 AM 38.1789 -86.4078 285° West 418 481 18,900 2,700 Climbing Indianapolis Center
Sat 04:42:46 AM 38.2111 -86.5583 285° West 437 503 21,500 2,430 Climbing Indianapolis Center
Sat 04:43:47 AM 38.2447 -86.7142 285° West 451 519 23,800 2,182 Climbing Indianapolis Center
Sat 04:44:47 AM 38.2775 -86.8742 285° West 463 533 25,900 2,000 Climbing Indianapolis Center
Sat 04:45:47 AM 38.3142 -87.0503 285° West 472 543 27,800 2,150 Climbing Indianapolis Center
Sat 04:46:47 AM 38.3511 -87.2267 285° West 491 565 30,200 2,150 Climbing Indianapolis Center
Sat 04:47:47 AM 38.3856 -87.3939 285° West 488 562 32,100 1,700 Climbing Indianapolis Center
Sat 04:48:47 AM 38.4194 -87.5611 285° West 488 562 33,600 1,438 Climbing Indianapolis Center
Sat 04:49:48 AM 38.4528 -87.7292 284° West 488 562 35,000 1,190 Climbing Indianapolis Center
Sat 04:50:48 AM 38.4861 -87.8972 284° West 488 562 36,000 638 Climbing Indianapolis Center
Sat 04:51:22 AM 38.5022 -87.9647 287° West 487 560 36,000  Level Kansas City Center
Sat 04:52:22 AM 38.5636 -88.1242 296° West 493 567 36,000  Level Kansas City Center
Sat 04:53:23 AM 38.6261 -88.2858 296° West 501 577 36,000  Level Kansas City Center
Sat 04:54:23 AM 38.6867 -88.4475 296° West 503 579 36,000  Level Kansas City Center
Sat 04:55:23 AM 38.7475 -88.6081 296° West 501 577 36,000  Level Kansas City Center
Sat 04:56:24 AM 38.8186 -88.7939 296° West 503 579 36,000  Level Kansas City Center
Sat 04:57:24 AM 38.8794 -88.9542 296° West 503 579 36,000  Level Kansas City Center
Sat 04:58:25 AM 38.9458 -89.1231 297° West 506 582 36,000  Level Kansas City Center
Sat 04:59:25 AM 39.0061 -89.2847 296° West 504 580 36,000  Level Kansas City Center
Sat 05:00:25 AM 39.0658 -89.4453 296° West 501 577 36,000  Level Kansas City Center
Sat 05:01:26 AM 39.1256 -89.6053 296° West 499 574 36,000  Level Kansas City Center
Sat 05:02:26 AM 39.1822 -89.7561 296° West 500 575 36,000  Level Kansas City Center
Sat 05:03:26 AM 39.2400 -89.9150 295° West 497 572 36,000  Level Kansas City Center
Sat 05:04:27 AM 39.2978 -90.0736 295° West 494 568 36,000  Level Kansas City Center
Sat 05:05:27 AM 39.3547 -90.2322 295° West 493 567 36,000  Level Kansas City Center
Sat 05:06:28 AM 39.4133 -90.3919 295° West 495 570 36,000  Level Kansas City Center
Sat 05:07:28 AM 39.4700 -90.5528 295° West 495 570 36,000  Level Kansas City Center
Sat 05:08:28 AM 39.5283 -90.7150 295° West 498 573 36,000  Level Kansas City Center
Sat 05:09:29 AM 39.5867 -90.8781 295° West 501 577 36,000  Level Kansas City Center
Sat 05:10:29 AM 39.6453 -91.0431 295° West 504 580 36,000  Level Kansas City Center
Sat 05:11:30 AM 39.7033 -91.2100 294° West 509 586 36,000  Level Kansas City Center
Sat 05:12:30 AM 39.7669 -91.3933 294° West 514 592 36,000  Level Kansas City Center
Sat 05:13:30 AM 39.8269 -91.5631 295° West 519 597 36,000  Level Kansas City Center
Sat 05:14:31 AM 39.8858 -91.7344 294° West 521 600 36,000  Level Kansas City Center
Sat 05:15:31 AM 39.9428 -91.9064 293° West 520 598 36,000  Level Kansas City Center
Sat 05:16:32 AM 40.0014 -92.0767 294° West 518 596 36,000  Level Kansas City Center
Sat 05:17:32 AM 40.0603 -92.2475 294° West 518 596 36,000  Level Kansas City Center
Sat 05:18:32 AM 40.1217 -92.4281 294° West 517 595 36,000  Level Kansas City Center
Sat 05:19:33 AM 40.1853 -92.6189 294° West 514 592 36,000  Level Kansas City Center
Sat 05:20:33 AM 40.2389 -92.7822 293° West 512 589 36,000  Level Kansas City Center
Sat 05:21:34 AM 40.2922 -92.9444 293° West 509 586 36,000  Level Kansas City Center
Sat 05:22:34 AM 40.3467 -93.1092 293° West 511 588 36,000  Level Kansas City Center
Sat 05:23:34 AM 40.4000 -93.2769 293° West 504 580 36,000  Level Kansas City Center
Sat 05:24:16 AM 40.4456 -93.4119 294° West 504 580 36,000  Level Minneapolis Center
Sat 05:25:17 AM 40.5000 -93.5806 293° West 503 579 36,000  Level Minneapolis Center
Sat 05:26:17 AM 40.5539 -93.7486 293° West 503 579 36,000  Level Minneapolis Center
Sat 05:27:17 AM 40.6078 -93.9169 293° West 504 580 36,000  Level Minneapolis Center
Sat 05:28:17 AM 40.6614 -94.0861 293° West 504 580 36,000  Level Minneapolis Center
Sat 05:29:18 AM 40.7147 -94.2556 293° West 503 579 36,000  Level Minneapolis Center
Sat 05:30:18 AM 40.7678 -94.4247 293° West 501 577 36,000  Level Minneapolis Center
Sat 05:31:18 AM 40.8186 -94.5889 292° West 501 577 36,000  Level Minneapolis Center
Sat 05:32:18 AM 40.8714 -94.7592 292° West 500 575 36,000  Level Minneapolis Center
Sat 05:33:18 AM 40.9236 -94.9294 292° West 501 577 36,000  Level Minneapolis Center
Sat 05:34:19 AM 40.9767 -95.1033 292° West 501 577 36,000  Level Minneapolis Center
Sat 05:35:19 AM 41.0278 -95.2717 292° West 502 578 36,000  Level Minneapolis Center
Sat 05:36:19 AM 41.0794 -95.4433 292° West 501 577 36,000  Level Minneapolis Center
Sat 05:37:19 AM 41.1392 -95.6422 292° West 500 575 36,000  Level Minneapolis Center
Sat 05:38:20 AM 41.2000 -95.8075 296° West 499 574 36,000  Level Minneapolis Center
Sat 05:39:20 AM 41.2719 -95.9647 301° West 497 572 36,000 50 Level Minneapolis Center
Sat 05:40:21 AM 41.3442 -96.1211 302° West 496 571 36,100  Climbing Minneapolis Center
Sat 05:41:21 AM 41.4156 -96.2769 301° West 493 567 36,000 -50 Descending Minneapolis Center
Sat 05:42:21 AM 41.4828 -96.4244 301° West 490 564 36,000  Level Minneapolis Center
Sat 05:43:21 AM 41.5514 -96.5767 301° West 485 558 36,000  Level Minneapolis Center
Sat 05:44:22 AM 41.6203 -96.7297 301° West 479 551 36,000  Level Minneapolis Center
Sat 05:45:22 AM 41.6881 -96.8811 301° West 473 544 36,000  Level Minneapolis Center
Sat 05:46:22 AM 41.7558 -97.0333 301° West 466 536 36,000  Level Minneapolis Center
Sat 05:47:22 AM 41.8206 -97.1792 301° West 461 531 36,000  Level Minneapolis Center
Sat 05:48:23 AM 41.8856 -97.3264 301° West 458 527 36,000  Level Minneapolis Center
Sat 05:49:23 AM 41.9500 -97.4733 301° West 458 527 36,000  Level Minneapolis Center
Sat 05:50:23 AM 42.0144 -97.6211 300° West 459 528 36,000  Level Minneapolis Center
Sat 05:51:23 AM 42.0789 -97.7697 300° West 461 531 36,000  Level Minneapolis Center
Sat 05:52:24 AM 42.1469 -97.9267 300° West 462 532 36,000  Level Minneapolis Center
Sat 05:53:24 AM 42.2114 -98.0764 300° West 463 533 36,000  Level Minneapolis Center
Sat 05:54:24 AM 42.2756 -98.2267 300° West 464 534 36,000  Level Minneapolis Center
Sat 05:55:24 AM 42.3400 -98.3775 300° West 464 534 36,000  Level Minneapolis Center
Sat 05:56:25 AM 42.4039 -98.5289 300° West 465 535 36,000  Level Minneapolis Center
Sat 05:57:25 AM 42.4658 -98.6817 299° West 463 533 36,000  Level Minneapolis Center
Sat 05:58:25 AM 42.5083 -98.8450 289° West 460 529 36,000  Level Minneapolis Center
Sat 05:59:25 AM 42.5464 -99.0097 287° West 459 528 36,000  Level Minneapolis Center
Sat 06:00:26 AM 42.5847 -99.1747 288° West 460 529 36,000  Level Minneapolis Center
Sat 06:01:26 AM 42.6228 -99.3400 287° West 460 529 36,000  Level Minneapolis Center
Sat 06:02:26 AM 42.6608 -99.5056 287° West 461 531 36,000  Level Minneapolis Center
Sat 06:03:26 AM 42.7003 -99.6833 287° West 463 533 36,000  Level Denver Center
Sat 06:04:26 AM 42.7386 -99.8489 288° West 461 531 36,000  Level Denver Center
Sat 06:05:26 AM 42.7753 -100.0167 287° West 462 532 36,000  Level Denver Center
Sat 06:06:27 AM 42.8125 -100.1839 287° West 462 532 36,000  Level Denver Center
Sat 06:07:27 AM 42.8497 -100.3494 287° West 459 528 36,000  Level Denver Center
Sat 06:08:27 AM 42.8858 -100.5172 286° West 459 528 36,000  Level Denver Center
Sat 06:09:27 AM 42.9219 -100.6825 287° West 457 526 36,000  Level Denver Center
Sat 06:10:27 AM 42.9572 -100.8481 286° West 454 522 36,000  Level Denver Center
Sat 06:11:27 AM 42.9933 -101.0156 286° West 459 528 36,000  Level Denver Center
Sat 06:12:28 AM 43.0283 -101.1797 286° West 453 521 36,000  Level Denver Center
Sat 06:13:28 AM 43.0628 -101.3447 286° West 452 520 36,000  Level Denver Center
Sat 06:14:28 AM 43.0967 -101.5100 286° West 451 519 36,000  Level Denver Center
Sat 06:15:28 AM 43.1314 -101.6747 286° West 451 519 36,000  Level Denver Center
Sat 06:16:28 AM 43.1614 -101.8206 286° West 449 517 36,000  Level Denver Center
Sat 06:17:28 AM 43.1986 -102.0047 286° West 451 519 36,000  Level Denver Center
Sat 06:18:29 AM 43.2314 -102.1625 286° West 450 518 36,000  Level Denver Center
Sat 06:19:29 AM 43.2611 -102.3178 285° West 443 510 36,000  Level Denver Center
Sat 06:20:29 AM 43.2933 -102.4758 286° West 448 516 36,000  Level Denver Center
Sat 06:21:29 AM 43.3292 -102.6581 285° West 445 512 36,000  Level Denver Center
Sat 06:22:29 AM 43.3597 -102.8164 285° West 447 514 36,000  Level Denver Center
Sat 06:23:29 AM 43.3917 -102.9742 286° West 450 518 36,000  Level Denver Center
Sat 06:24:30 AM 43.4258 -103.1586 284° West 448 516 36,000  Level Denver Center
Sat 06:25:30 AM 43.4569 -103.3167 285° West 449 517 36,000  Level Denver Center
Sat 06:26:30 AM 43.4872 -103.4767 285° West 450 518 36,000  Level Denver Center
Sat 06:27:30 AM 43.5169 -103.6353 285° West 449 517 36,000  Level Denver Center
Sat 06:28:30 AM 43.5503 -103.8178 284° West 445 512 36,000  Level Denver Center
Sat 06:29:30 AM 43.5794 -103.9775 284° West 448 516 36,000  Level Denver Center
Sat 06:30:31 AM 43.6092 -104.1364 285° West 449 517 36,000  Level Denver Center
Sat 06:31:31 AM 43.6433 -104.3225 284° West 449 517 36,000  Level Denver Center
Sat 06:32:31 AM 43.6717 -104.4839 284° West 452 520 36,000  Level Denver Center
Sat 06:33:31 AM 43.7000 -104.6461 284° West 455 524 36,000  Level Denver Center
Sat 06:34:31 AM 43.7294 -104.8067 284° West 453 521 36,000  Level Denver Center
Sat 06:35:31 AM 43.7617 -104.9986 283° West 458 527 36,000 50 Level Denver Center
Sat 06:36:32 AM 43.7903 -105.1611 284° West 457 526 36,100  Climbing Denver Center
Sat 06:37:32 AM 43.8178 -105.3264 283° West 460 529 36,000  Descending Denver Center
Sat 06:38:32 AM 43.8506 -105.5178 283° West 459 528 36,100  Climbing Denver Center
Sat 06:39:32 AM 43.8772 -105.6822 283° West 459 528 36,000  Descending Denver Center
Sat 06:40:32 AM 43.9053 -105.8464 283° West 459 528 36,100  Climbing Denver Center
Sat 06:41:32 AM 43.9322 -106.0133 283° West 462 532 36,000  Descending Denver Center
Sat 06:42:33 AM 43.9633 -106.2075 283° West 464 534 36,100 50 Climbing Denver Center
Sat 06:43:33 AM 43.9892 -106.3742 282° West 463 533 36,100  Level Denver Center
Sat 06:44:33 AM 44.0217 -106.5392 285° West 464 534 36,100  Level Denver Center
Sat 06:45:33 AM 44.0675 -106.7275 289° West 464 534 36,100  Level Denver Center
Sat 06:46:33 AM 44.1039 -106.8897 287° West 461 531 36,100  Level Denver Center
Sat 06:47:01 AM 44.1217 -106.9614 289° West 461 531 36,100  Level Salt Lake Center
Sat 06:48:01 AM 44.1583 -107.1225 288° West 457 526 36,100  Level Salt Lake Center
Sat 06:49:01 AM 44.1947 -107.2831 288° West 452 520 36,100  Level Salt Lake Center
Sat 06:50:01 AM 44.2367 -107.4689 288° West 449 517 36,100  Level Salt Lake Center
Sat 06:51:01 AM 44.2717 -107.6264 287° West 442 509 36,100  Level Salt Lake Center
Sat 06:52:01 AM 44.3069 -107.7839 287° West 442 509 36,100  Level Salt Lake Center
Sat 06:53:02 AM 44.3417 -107.9433 287° West 445 512 36,100  Level Salt Lake Center
Sat 06:54:02 AM 44.3825 -108.1264 287° West 441 507 36,100  Level Salt Lake Center
Sat 06:55:02 AM 44.4175 -108.2858 287° West 444 511 36,100  Level Salt Lake Center
Sat 06:56:02 AM 44.4519 -108.4444 287° West 443 510 36,100  Level Salt Lake Center
Sat 06:57:02 AM 44.4858 -108.6044 287° West 446 513 36,100  Level Salt Lake Center
Sat 06:58:02 AM 44.5253 -108.7900 287° West 444 511 36,100  Level Salt Lake Center
Sat 06:59:03 AM 44.5586 -108.9500 286° West 445 512 36,100  Level Salt Lake Center
Sat 07:00:03 AM 44.5919 -109.1092 286° West 444 511 36,100  Level Salt Lake Center
Sat 07:01:03 AM 44.6250 -109.2706 286° West 448 516 36,100  Level Salt Lake Center
Sat 07:02:03 AM 44.6639 -109.4603 286° West 452 520 36,100  Level Salt Lake Center
Sat 07:03:03 AM 44.6981 -109.6228 287° West 453 521 36,100  Level Salt Lake Center
Sat 07:04:03 AM 44.7303 -109.7875 285° West 455 524 36,100  Level Salt Lake Center
Sat 07:05:04 AM 44.7658 -109.9678 286° West 455 524 36,100  Level Salt Lake Center
Sat 07:06:04 AM 44.7997 -110.1314 286° West 456 525 36,100  Level Salt Lake Center
Sat 07:07:04 AM 44.8325 -110.2969 286° West 458 527 36,100  Level Salt Lake Center
Sat 07:08:04 AM 44.8697 -110.4900 285° West 459 528 36,100  Level Salt Lake Center
Sat 07:09:04 AM 44.9019 -110.6533 286° West 455 524 36,100  Level Salt Lake Center
Sat 07:10:05 AM 44.9339 -110.8197 285° West 459 528 36,100  Level Salt Lake Center
Sat 07:11:05 AM 44.9700 -111.0111 285° West 456 525 36,100  Level Salt Lake Center
Sat 07:12:05 AM 45.0006 -111.1756 285° West 456 525 36,100  Level Salt Lake Center
Sat 07:13:05 AM 45.0314 -111.3400 285° West 455 524 36,100  Level Salt Lake Center
Sat 07:14:05 AM 45.0661 -111.5314 284° West 454 522 36,100 -50 Level Salt Lake Center
Sat 07:15:06 AM 45.0967 -111.6961 285° West 454 522 36,000 -50 Descending Salt Lake Center
Sat 07:16:06 AM 45.1275 -111.8625 285° West 456 525 36,000  Level Salt Lake Center
Sat 07:17:06 AM 45.1578 -112.0364 284° West 454 522 36,000  Level Salt Lake Center
Sat 07:18:06 AM 45.1906 -112.2200 284° West 454 522 36,000  Level Salt Lake Center
Sat 07:19:06 AM 45.2200 -112.3886 284° West 459 528 36,000 50 Level Salt Lake Center
Sat 07:20:07 AM 45.2489 -112.5564 284° West 459 528 36,100 50 Climbing Salt Lake Center
Sat 07:21:07 AM 45.2689 -112.7558 278° West 458 527 36,100  Level Salt Lake Center
Sat 07:22:07 AM 45.2847 -112.9289 277° West 461 531 36,100  Level Salt Lake Center
Sat 07:23:07 AM 45.3014 -113.1011 278° West 461 531 36,100  Level Salt Lake Center
Sat 07:24:07 AM 45.3178 -113.2747 278° West 463 533 36,100  Level Salt Lake Center
Sat 07:25:08 AM 45.3347 -113.4767 277° West 463 533 36,100  Level Salt Lake Center
Sat 07:26:08 AM 45.3528 -113.6617 278° West 463 533 36,100  Level Salt Lake Center
Sat 07:27:08 AM 45.3683 -113.8361 277° West 465 535 36,100 -50 Level Salt Lake Center
Sat 07:28:08 AM 45.3831 -114.0094 277° West 463 533 36,000 -50 Descending Salt Lake Center
Sat 07:29:08 AM 45.3986 -114.1847 277° West 466 536 36,000  Level Salt Lake Center
Sat 07:30:09 AM 45.4147 -114.3883 277° West 466 536 36,000 50 Level Salt Lake Center
Sat 07:31:09 AM 45.4306 -114.5636 277° West 467 537 36,100  Climbing Salt Lake Center
Sat 07:32:09 AM 45.4439 -114.7386 276° West 466 536 36,000  Descending Salt Lake Center
Sat 07:33:09 AM 45.4608 -114.9464 277° West 472 543 36,100 50 Climbing Salt Lake Center
Sat 07:34:09 AM 45.4744 -115.1222 276° West 470 541 36,100  Level Salt Lake Center
Sat 07:34:26 AM 45.4786 -115.1808 276° West 467 537 36,100 -78 Level Seattle Center
Sat 07:35:26 AM 45.4911 -115.3575 276° West 468 539 36,000  Descending Seattle Center
Sat 07:36:26 AM 45.5050 -115.5325 277° West 468 539 36,100  Climbing Seattle Center
Sat 07:37:26 AM 45.5175 -115.7100 276° West 469 540 36,000  Descending Seattle Center
Sat 07:38:26 AM 45.5319 -115.9178 276° West 470 541 36,100  Climbing Seattle Center
Sat 07:39:10 AM 45.5392 -116.0358 275° West 472 543 36,000  Descending Salt Lake Center
Sat 07:40:11 AM 45.5531 -116.2419 276° West 470 541 36,100 79 Climbing Salt Lake Center
Sat 07:40:26 AM 45.5550 -116.2733 275° West 474 545 36,100  Level Seattle Center
Sat 07:41:26 AM 45.5664 -116.4506 275° West 470 541 36,100  Level Seattle Center
Sat 07:42:26 AM 45.5797 -116.6561 275° West 468 539 36,100 -50 Level Seattle Center
Sat 07:43:27 AM 45.5903 -116.8358 275° West 475 547 36,000  Descending Seattle Center
Sat 07:44:27 AM 45.6008 -117.0136 275° West 471 542 36,100 50 Climbing Seattle Center
Sat 07:45:27 AM 45.6128 -117.2239 275° West 476 548 36,100  Level Seattle Center
Sat 07:46:27 AM 45.6239 -117.3994 275° West 475 547 36,100  Level Seattle Center
Sat 07:47:27 AM 45.6336 -117.5889 274° West 478 550 36,100  Level Seattle Center
Sat 07:48:27 AM 45.6428 -117.7778 274° West 479 551 36,100  Level Seattle Center
Sat 07:49:27 AM 45.6531 -117.9694 274° West 482 555 36,100  Level Seattle Center
Sat 07:50:27 AM 45.6625 -118.1600 274° West 483 556 36,100  Level Seattle Center
Sat 07:51:27 AM 45.6717 -118.3503 274° West 483 556 36,100  Level Seattle Center
Sat 07:52:27 AM 45.6806 -118.5436 274° West 488 562 36,100  Level Seattle Center
Sat 07:53:28 AM 45.6886 -118.7342 274° West 486 559 36,100  Level Seattle Center
Sat 07:54:28 AM 45.6961 -118.9286 273° West 491 565 36,100  Level Seattle Center
Sat 07:55:28 AM 45.6772 -119.1244 262° West 500 575 36,100  Level Seattle Center
Sat 07:56:28 AM 45.6561 -119.3200 261° West 501 577 36,100  Level Seattle Center
Sat 07:57:28 AM 45.6336 -119.5142 261° West 500 575 36,100  Level Seattle Center
Sat 07:58:28 AM 45.6111 -119.7089 261° West 499 574 36,100  Level Seattle Center
Sat 07:59:28 AM 45.5886 -119.9031 261° West 500 575 36,100 -800 Level Seattle Center
Sat 08:00:28 AM 45.5647 -120.0978 260° West 500 575 34,500 -2,050 Descending Seattle Center
Sat 08:01:28 AM 45.5419 -120.2939 261° West 504 580 32,000 -2,550 Descending Seattle Center
Sat 08:02:28 AM 45.5169 -120.4831 259° West 494 568 29,400 -2,579 Descending Seattle Center
Sat 08:03:29 AM 45.4939 -120.6750 260° West 495 570 26,800 -2,479 Descending Seattle Center
Sat 08:04:29 AM 45.4706 -120.8606 260° West 485 558 24,400 -2,550 Descending Seattle Center
Sat 08:05:29 AM 45.4483 -121.0453 260° West 477 549 21,700 -2,200 Descending Seattle Center
Sat 08:06:29 AM 45.4289 -121.2225 261° West 460 529 20,000 -1,840 Descending Seattle Center
Sat 08:06:44 AM 45.4392 -121.2789 285° West 440 506 19,400 -2,200 Descending Seattle Center
Sat 08:07:29 AM 45.4483 -121.3847 277° West 421 484 17,800 -2,333 Descending Seattle Center
Sat 08:07:56 AM 45.4636 -121.4847 282° West 406 467 16,600 -2,200 Descending Seattle Center
Sat 08:08:29 AM 45.4689 -121.5444 277° West 411 473 15,600 -2,557 Descending Seattle Center
Sat 08:08:57 AM 45.4833 -121.6403 282° West 400 460 14,000 -2,900 Descending Seattle Center
Sat 08:09:29 AM 45.4883 -121.6967 277° West 396 456 12,700 -2,754 Descending Seattle Center
Sat 08:09:58 AM 45.5017 -121.7994 281° West 391 450 11,200 -1,967 Descending Seattle Center
Sat 08:10:30 AM 45.5047 -121.8456 275° West 384 442 10,700 -1,182 Descending Seattle Center
Sat 08:11:04 AM 45.4978 -121.9369 264° West 296 341 9,900 -1,600 Descending Seattle Center
Sat 08:11:30 AM 45.4967 -121.9825 268° West 306 352 9,100 -2,164 Descending Seattle Center
Sat 08:12:05 AM 45.4961 -122.0550 269° West 290 334 7,700 -2,600 Descending Seattle Center
Sat 08:12:30 AM 45.4947 -122.0994 267° West 297 342 6,500 -2,200 Descending Seattle Center
Sat 08:13:05 AM 45.4900 -122.1717 265° West 301 346 5,500 -1,500 Descending Seattle Center
Sat 08:13:30 AM 45.4903 -122.2178 271° West 302 348 5,000 -1,672 Descending Seattle Center
Sat 08:14:06 AM 45.4844 -122.2819 263° West 275 316 3,800 -1,900 Descending Seattle Center
Sat 08:14:30 AM 45.4881 -122.3239 277° West 279 321 3,100 -787 Descending Seattle Center
Sat 08:15:07 AM 45.5069 -122.3714 300° West 222 255 3,000 -400 Descending Seattle Center
Sat 08:15:30 AM 45.5175 -122.3992 298° West 219 252 2,700 -909 Descending Seattle Center
Sat 08:16:13 AM 45.5383 -122.4508 300° West 195 224 2,000 -1,000 Descending Seattle Center
Sat 08:16:30 AM 45.5447 -122.4653 302° West 199 229 1,700 -885 Descending Seattle Center
Sat 08:17:14 AM 45.5606 -122.5067 299° West 151 174 1,100 -787 Descending Seattle Center
Sat 08:17:31 AM 45.5669 -122.5225 300° West 187 215 900 -806 Descending Seattle Center
Sat 08:18:21 AM 45.5800 -122.5603 296° West 130 150 200 -840 Descending Seattle Center

Login

Don't have an account? Register now (free) for customized features, flight alerts, and more!